Time;durP1;ratioP1;P1;durP2;ratioP2;P2;SDS_P1;SDS_P2;PMS_P1;PMS_P2;Temp;Humidity;BMP_temperature;BMP_pressure;BME280_temperature;BME280_humidity;BME280_pressure;Samples;Min_cycle;Max_cycle;Signal;HPM_P1;HPM_P2
2022/11/16 00:04:31;;;;;;;2.45;1.40;;;;;;;9.35;100.00;97241.53;15284522;19;20014;-75
2022/11/16 00:09:55;;;;;;;2.60;1.58;;;;;;;9.34;100.00;97237.16;15288288;19;20022;-76
2022/11/16 00:15:20;;;;;;;2.13;1.40;;;;;;;9.34;100.00;97229.09;15283920;19;20020;-74
2022/11/16 00:20:49;;;;;;;2.17;1.40;;;;;;;9.33;100.00;97225.56;15281766;19;20007;-75
2022/11/16 00:26:15;;;;;;;2.13;1.55;;;;;;;9.34;100.00;97204.91;15281108;19;20114;-75
2022/11/16 00:31:40;;;;;;;2.65;1.40;;;;;;;9.32;100.00;97201.56;15300983;19;20014;-74
2022/11/16 00:37:14;;;;;;;3.03;1.33;;;;;;;9.33;100.00;97192.47;15300875;19;20014;-75
2022/11/16 00:42:41;;;;;;;2.97;1.45;;;;;;;9.29;100.00;97191.16;15368791;19;20011;-74
2022/11/16 00:48:06;;;;;;;1.65;1.30;;;;;;;9.24;100.00;97184.47;15289810;19;20125;-75
2022/11/16 00:53:32;;;;;;;3.67;1.40;;;;;;;9.23;100.00;97172.06;15287802;19;20033;-74
2022/11/16 00:59:00;;;;;;;1.40;1.10;;;;;;;9.19;100.00;97164.56;15295375;19;20330;-74
2022/11/16 01:04:32;;;;;;;1.60;1.13;;;;;;;9.15;100.00;97163.28;15291056;19;20038;-73
2022/11/16 01:09:57;;;;;;;2.30;1.33;;;;;;;9.14;100.00;97142.78;15293615;19;20330;-73
2022/11/16 01:15:26;;;;;;;1.63;1.30;;;;;;;9.15;100.00;97147.97;15289361;19;20019;-73
2022/11/16 01:20:52;;;;;;;1.77;1.10;;;;;;;9.13;100.00;97133.88;15293830;19;20026;-73
2022/11/16 01:26:16;;;;;;;1.92;1.30;;;;;;;9.13;100.00;97128.50;15281463;19;20070;-73
2022/11/16 01:31:43;;;;;;;1.63;1.10;;;;;;;9.07;100.00;97137.31;15293176;19;20018;-74
2022/11/16 01:37:09;;;;;;;2.10;1.30;;;;;;;9.02;100.00;97134.34;15287000;19;20007;-74
2022/11/16 01:42:35;;;;;;;1.77;1.40;;;;;;;8.92;100.00;97132.75;15291933;19;20034;-74
2022/11/16 01:48:03;;;;;;;1.52;1.20;;;;;;;8.87;100.00;97137.84;15284986;19;20401;-74
2022/11/16 01:53:28;;;;;;;1.92;1.30;;;;;;;8.81;100.00;97141.25;15290102;19;20361;-74
2022/11/16 01:58:53;;;;;;;1.92;1.45;;;;;;;8.77;100.00;97135.41;15284046;19;20653;-73
2022/11/16 02:04:21;;;;;;;1.77;1.40;;;;;;;8.77;100.00;97126.50;15290193;19;20341;-73
2022/11/16 02:10:03;;;;;;;2.92;1.27;;;;;;;8.72;100.00;97121.69;15279392;19;20027;-61
2022/11/16 02:15:33;;;;;;;2.07;1.40;;;;;;;8.69;100.00;97116.69;15281734;19;20038;-59
2022/11/16 02:21:24;;;;;;;2.45;1.40;;;;;;;8.61;100.00;97108.69;15281263;19;20328;-61
2022/11/16 02:27:11;;;;;;;2.15;1.42;;;;;;;8.48;100.00;97091.34;15285261;19;20463;-61
2022/11/16 02:32:43;;;;;;;1.30;1.20;;;;;;;8.44;100.00;97087.34;15278057;19;20042;-62
2022/11/16 02:38:12;;;;;;;2.88;1.60;;;;;;;8.40;100.00;97095.94;15278810;19;20018;-60
2022/11/16 02:43:42;;;;;;;2.35;1.40;;;;;;;8.33;100.00;97093.16;15278182;19;20367;-60
2022/11/16 02:49:15;;;;;;;1.90;1.40;;;;;;;8.29;100.00;97095.31;15272422;19;20028;-59
2022/11/16 02:54:41;;;;;;;1.52;1.20;;;;;;;8.25;100.00;97090.50;15271464;19;20048;-60
2022/11/16 03:00:09;;;;;;;2.45;1.48;;;;;;;8.24;100.00;97086.16;15267384;19;20020;-62
2022/11/16 03:05:41;;;;;;;2.30;1.35;;;;;;;8.16;100.00;97087.88;15275861;19;20118;-56
2022/11/16 03:16:58;;;;;;;2.00;1.58;;;;;;;8.08;100.00;97087.97;15277469;19;20018;-57
2022/11/16 03:22:34;;;;;;;2.08;1.52;;;;;;;8.02;100.00;97094.03;15274886;19;20010;-57
2022/11/16 03:28:06;;;;;;;2.50;1.50;;;;;;;7.95;100.00;97087.72;15278461;19;20023;-59
2022/11/16 03:33:38;;;;;;;3.17;1.70;;;;;;;7.94;100.00;97086.84;15277647;19;20022;-55
2022/11/16 03:39:12;;;;;;;2.00;1.50;;;;;;;7.89;100.00;97083.88;15278327;19;20413;-58
2022/11/16 03:44:38;;;;;;;1.90;1.25;;;;;;;7.84;100.00;97089.78;15277896;19;20018;-57
2022/11/16 03:50:03;;;;;;;2.50;1.40;;;;;;;7.81;100.00;97087.44;15275427;19;20023;-59
2022/11/16 03:55:30;;;;;;;2.38;1.50;;;;;;;7.77;100.00;97079.94;15274838;19;20468;-60
2022/11/16 04:00:56;;;;;;;2.65;1.63;;;;;;;7.75;100.00;97081.97;15276888;19;21308;-59
2022/11/16 04:28:57;;;;;;;1.52;1.30;;;;;;;7.73;100.00;97074.09;15274476;19;20041;-62
2022/11/16 04:40:01;;;;;;;1.25;1.15;;;;;;;7.76;100.00;97072.91;15265614;19;20022;-61
2022/11/16 04:51:12;;;;;;;3.88;1.30;;;;;;;7.78;100.00;97077.06;15270900;19;20029;-59
2022/11/16 04:56:38;;;;;;;3.35;1.40;;;;;;;7.80;100.00;97068.88;15266948;19;20023;-60
2022/11/16 05:02:10;;;;;;;2.67;1.20;;;;;;;7.82;100.00;97073.03;15264460;19;20038;-60
2022/11/16 05:07:45;;;;;;;1.30;1.20;;;;;;;7.84;100.00;97065.66;15265374;19;20460;-61
2022/11/16 05:13:14;;;;;;;2.10;1.40;;;;;;;7.86;100.00;97069.00;15267688;19;20014;-61
2022/11/16 05:18:43;;;;;;;1.55;1.30;;;;;;;7.90;100.00;97063.25;15277637;19;20365;-60
2022/11/16 05:29:50;;;;;;;1.60;1.50;;;;;;;7.93;100.00;97062.91;15284318;19;20022;-61
2022/11/16 05:35:18;;;;;;;2.28;1.58;;;;;;;7.94;100.00;97068.09;15278440;19;20110;-61
2022/11/16 05:40:43;;;;;;;3.15;1.48;;;;;;;7.94;100.00;97068.09;15275386;19;20056;-60
2022/11/16 05:46:08;;;;;;;2.00;1.75;;;;;;;7.93;100.00;97069.13;15269815;19;20476;-60
2022/11/16 05:51:36;;;;;;;2.83;1.60;;;;;;;7.93;100.00;97077.16;15279600;19;20022;-60
2022/11/16 05:57:03;;;;;;;1.60;1.50;;;;;;;7.90;100.00;97071.31;15277813;19;20371;-60
2022/11/16 06:02:28;;;;;;;1.50;1.40;;;;;;;7.88;100.00;97076.84;15278821;19;20029;-61
2022/11/16 06:08:05;;;;;;;2.83;1.60;;;;;;;7.82;100.00;97074.91;15281521;19;20019;-61
2022/11/16 06:13:33;;;;;;;1.80;1.40;;;;;;;7.77;100.00;97083.44;15283777;19;20336;-60
2022/11/16 06:19:01;;;;;;;2.05;1.60;;;;;;;7.75;100.00;97088.16;15278547;19;20032;-61
2022/11/16 06:24:28;;;;;;;6.63;2.70;;;;;;;7.68;100.00;97085.34;15283789;19;20038;-81
2022/11/16 06:29:53;;;;;;;4.15;2.08;;;;;;;7.58;100.00;97095.47;15289073;19;20494;-81
2022/11/16 06:35:18;;;;;;;2.65;1.77;;;;;;;7.48;100.00;97094.81;15295304;19;20021;-81
2022/11/16 06:40:51;;;;;;;4.13;2.13;;;;;;;7.45;100.00;97092.50;15294041;19;20018;-81
2022/11/16 06:46:23;;;;;;;2.33;2.10;;;;;;;7.38;100.00;97095.88;15293595;19;20031;-81
2022/11/16 06:51:48;;;;;;;2.42;1.95;;;;;;;7.34;100.00;97096.41;15298954;19;20463;-82
2022/11/16 06:57:23;;;;;;;2.33;2.13;;;;;;;7.31;100.00;97092.22;15292024;19;20018;-81
2022/11/16 07:02:49;;;;;;;2.85;1.88;;;;;;;7.30;100.00;97095.06;15290551;19;20553;-82
2022/11/16 07:08:14;;;;;;;3.70;2.20;;;;;;;7.29;100.00;97090.75;15287481;19;20019;-81
2022/11/16 07:13:42;;;;;;;2.17;1.98;;;;;;;7.29;100.00;97088.88;15294000;19;20014;-82
2022/11/16 07:19:06;;;;;;;6.55;2.00;;;;;;;7.28;100.00;97092.56;15285551;19;20020;-83
2022/11/16 07:24:39;;;;;;;2.67;2.40;;;;;;;7.30;100.00;97084.34;15292281;19;20018;-82
2022/11/16 07:30:08;;;;;;;2.80;2.50;;;;;;;7.35;100.00;97093.53;15293132;19;20019;-82
2022/11/16 07:35:54;;;;;;;2.38;2.08;;;;;;;7.37;100.00;97085.34;15293001;19;20021;-83
2022/11/16 07:41:20;;;;;;;2.60;2.40;;;;;;;7.39;100.00;97083.31;15296914;19;20018;-81
2022/11/16 07:47:01;;;;;;;3.40;2.50;;;;;;;7.39;100.00;97084.16;15292295;19;20014;-82
2022/11/16 07:52:26;;;;;;;2.90;2.50;;;;;;;7.43;100.00;97079.28;15287981;19;20022;-82
2022/11/16 07:57:58;;;;;;;2.83;2.63;;;;;;;7.48;100.00;97082.28;15290758;19;20025;-83
2022/11/16 08:03:26;;;;;;;2.72;2.53;;;;;;;7.53;100.00;97079.06;15291913;19;20146;-82
2022/11/16 08:08:59;;;;;;;2.83;2.58;;;;;;;7.57;100.00;97072.34;15293744;19;20369;-83
2022/11/16 08:14:24;;;;;;;2.95;2.75;;;;;;;7.61;100.00;97060.25;15295988;19;20022;-82
2022/11/16 08:19:52;;;;;;;3.78;2.67;;;;;;;7.66;100.00;97057.88;15298027;19;20018;-82
2022/11/16 08:25:19;;;;;;;3.00;2.70;;;;;;;7.68;100.00;97055.03;15295970;19;20778;-81
2022/11/16 08:30:48;;;;;;;3.08;2.88;;;;;;;7.74;100.00;97050.81;15288719;19;20074;-81
2022/11/16 08:36:17;;;;;;;3.40;3.00;;;;;;;7.80;100.00;97063.50;15291819;19;20017;-80
2022/11/16 08:41:45;;;;;;;2.83;2.63;;;;;;;7.85;100.00;97066.47;15293738;19;20507;-81
2022/11/16 08:47:10;;;;;;;3.80;3.47;;;;;;;7.95;100.00;97063.56;15291397;19;20026;-81
2022/11/16 08:52:40;;;;;;;4.07;3.17;;;;;;;8.04;100.00;97073.22;15308308;19;20038;-81
2022/11/16 08:58:05;;;;;;;3.53;3.22;;;;;;;8.10;100.00;97091.31;15296792;19;20490;-81
2022/11/16 09:03:30;;;;;;;4.20;3.25;;;;;;;8.16;100.00;97092.44;15277801;19;20090;-61
2022/11/16 09:08:58;;;;;;;4.10;3.70;;;;;;;8.17;100.00;97086.88;15287101;19;20089;-61
2022/11/16 09:14:22;;;;;;;3.70;3.30;;;;;;;8.22;100.00;97098.94;15283270;19;20011;-61
2022/11/16 09:19:47;;;;;;;3.53;3.22;;;;;;;8.23;100.00;97111.34;15270605;19;20029;-61
2022/11/16 09:25:17;;;;;;;4.57;3.28;;;;;;;8.16;100.00;97114.72;15281612;19;20077;-60
2022/11/16 09:30:42;;;;;;;5.55;3.42;;;;;;;8.16;100.00;97112.03;15272650;19;20050;-61
2022/11/16 09:36:09;;;;;;;3.30;3.00;;;;;;;8.15;100.00;97115.72;15276297;19;20023;-60
2022/11/16 09:41:49;;;;;;;3.85;3.50;;;;;;;8.18;100.00;97114.53;15278663;19;20015;-61
2022/11/16 09:47:23;;;;;;;5.57;3.45;;;;;;;8.20;100.00;97114.38;15288238;19;20014;-60
2022/11/16 09:52:53;;;;;;;4.55;3.92;;;;;;;8.16;100.00;97109.34;15287367;19;20098;-59
2022/11/16 09:58:26;;;;;;;4.30;3.90;;;;;;;8.18;100.00;97115.38;15281043;19;20029;-62
2022/11/16 10:03:58;;;;;;;4.05;3.65;;;;;;;8.21;100.00;97106.13;15274439;19;20021;-63
2022/11/16 10:09:23;;;;;;;3.75;3.42;;;;;;;8.22;100.00;97104.31;15284809;19;20074;-62
2022/11/16 10:15:08;;;;;;;4.45;4.00;;;;;;;8.24;100.00;97103.09;15285091;19;20019;-63
2022/11/16 10:20:50;;;;;;;6.47;3.90;;;;;;;8.21;100.00;97103.44;15286566;19;20093;-62
2022/11/16 10:26:26;;;;;;;4.63;4.23;;;;;;;8.26;100.00;97106.44;15285664;19;20085;-61
2022/11/16 10:32:09;;;;;;;4.78;3.90;;;;;;;8.28;100.00;97096.38;15282650;19;20007;-62
2022/11/16 10:37:37;;;;;;;4.28;3.88;;;;;;;8.30;100.00;97097.00;15276344;19;20014;-62
2022/11/16 10:43:19;;;;;;;4.20;3.80;;;;;;;8.41;100.00;97097.63;15296868;19;20038;-61
2022/11/16 10:48:56;;;;;;;4.43;3.80;;;;;;;8.49;100.00;97086.84;15290171;19;20053;-59
2022/11/16 10:54:20;;;;;;;4.28;3.83;;;;;;;8.58;100.00;97087.59;15283711;19;20090;-60
2022/11/16 10:59:54;;;;;;;4.30;3.90;;;;;;;8.63;100.00;97083.34;15278850;19;20085;-60
2022/11/16 11:05:24;;;;;;;4.53;4.03;;;;;;;8.70;100.00;97074.56;15274968;19;20026;-59
2022/11/16 11:10:50;;;;;;;4.43;3.90;;;;;;;8.72;100.00;97072.53;15279732;19;20363;-61
2022/11/16 11:16:17;;;;;;;4.55;4.15;;;;;;;8.77;100.00;97075.47;15278304;19;20022;-61
2022/11/16 11:21:45;;;;;;;4.65;4.03;;;;;;;8.79;100.00;97084.19;15268853;19;20428;-61
2022/11/16 11:27:09;;;;;;;5.30;4.20;;;;;;;8.79;100.00;97068.94;15271993;19;20040;-60
2022/11/16 11:32:40;;;;;;;4.28;3.88;;;;;;;8.66;100.00;97071.41;15278734;19;20019;-59
2022/11/16 11:38:08;;;;;;;4.90;4.40;;;;;;;8.67;100.00;97077.59;15271853;19;20098;-57
2022/11/16 11:43:36;;;;;;;4.78;4.38;;;;;;;8.64;100.00;97071.56;15279750;19;20105;-60
2022/11/16 11:49:07;;;;;;;5.30;4.80;;;;;;;8.59;100.00;97079.34;15278215;19;20090;-61
2022/11/16 11:54:41;;;;;;;4.93;4.43;;;;;;;8.56;100.00;97073.53;15278132;19;20025;-60
2022/11/16 12:00:09;;;;;;;6.57;4.63;;;;;;;8.49;100.00;97089.53;15275400;19;20029;-60
2022/11/16 12:05:53;;;;;;;5.57;4.60;;;;;;;8.45;100.00;97085.47;15276127;19;20865;-58
2022/11/16 12:11:31;;;;;;;5.40;4.82;;;;;;;8.41;100.00;97085.03;15267265;19;20023;-62
2022/11/16 12:17:02;;;;;;;6.10;5.07;;;;;;;8.36;100.00;97079.34;15276975;19;20022;-59
2022/11/16 12:22:46;;;;;;;6.00;5.20;;;;;;;8.35;100.00;97082.22;15279941;19;20337;-60
2022/11/16 12:28:33;;;;;;;6.00;4.95;;;;;;;8.37;100.00;97078.34;15290376;19;20017;-62
2022/11/16 12:34:05;;;;;;;6.28;5.50;;;;;;;8.40;100.00;97082.53;15293120;19;20035;-61
2022/11/16 12:39:36;;;;;;;6.00;5.40;;;;;;;8.41;100.00;97073.47;15288246;19;20404;-58
2022/11/16 12:45:19;;;;;;;5.07;4.50;;;;;;;8.40;100.00;97080.66;15284255;19;20010;-59
2022/11/16 12:50:59;;;;;;;6.80;4.97;;;;;;;8.35;100.00;97077.69;15288914;19;20030;-62
2022/11/16 12:56:34;;;;;;;5.80;5.20;;;;;;;8.33;100.00;97079.72;15290247;19;20021;-61
2022/11/16 13:02:20;;;;;;;8.82;5.18;;;;;;;8.32;100.00;97084.25;15283405;19;20045;-59
2022/11/16 13:07:48;;;;;;;5.78;5.20;;;;;;;8.31;100.00;97079.06;15287276;19;20094;-59
2022/11/16 13:13:31;;;;;;;5.97;5.10;;;;;;;8.27;100.00;97075.91;15289591;19;20031;-60
2022/11/16 13:19:01;;;;;;;6.95;5.68;;;;;;;8.24;100.00;97078.94;15280260;19;20633;-60
2022/11/16 13:24:41;;;;;;;7.93;5.40;;;;;;;8.28;100.00;97084.78;15288895;19;20022;-61
2022/11/16 13:30:15;;;;;;;6.30;5.20;;;;;;;8.28;100.00;97082.97;15285013;19;20021;-59
2022/11/16 13:35:45;;;;;;;5.43;4.60;;;;;;;8.28;100.00;97080.28;15284461;19;20810;-60
2022/11/16 13:41:32;;;;;;;5.38;4.78;;;;;;;8.30;100.00;97075.53;15283853;19;20482;-59
2022/11/16 13:47:03;;;;;;;4.85;4.35;;;;;;;8.31;100.00;97068.34;15281230;19;20018;-59
2022/11/16 13:52:43;;;;;;;4.75;4.25;;;;;;;8.38;100.00;97068.44;15287880;19;20021;-60
2022/11/16 13:58:30;;;;;;;4.90;4.40;;;;;;;8.39;100.00;97062.88;15284211;19;20020;-60
2022/11/16 14:04:37;;;;;;;5.00;4.50;;;;;;;8.42;100.00;97072.41;15282131;19;20018;-56
2022/11/16 14:10:07;;;;;;;7.53;6.72;;;;;;;8.37;100.00;97069.47;15283426;19;20078;-60
2022/11/16 14:15:34;;;;;;;7.45;6.00;;;;;;;8.36;100.00;97068.63;15283916;19;20014;-62
2022/11/16 14:21:00;;;;;;;7.47;5.90;;;;;;;8.38;100.00;97069.28;15277488;19;20094;-61
2022/11/16 14:26:36;;;;;;;5.97;5.38;;;;;;;8.40;100.00;97069.09;15282780;19;21174;-61
2022/11/16 14:32:03;;;;;;;5.70;5.13;;;;;;;8.44;100.00;97065.03;15282036;19;20018;-58
2022/11/16 14:37:41;;;;;;;5.88;5.00;;;;;;;8.47;100.00;97065.53;15281225;19;20015;-58
2022/11/16 14:43:16;;;;;;;6.53;5.75;;;;;;;8.45;100.00;97067.56;15284377;19;20519;-61
2022/11/16 14:48:43;;;;;;;5.30;4.80;;;;;;;8.43;100.00;97069.56;15274315;19;20608;-60
2022/11/16 14:54:17;;;;;;;5.53;4.93;;;;;;;8.41;100.00;97065.41;15272345;19;20014;-62
2022/11/16 14:59:45;;;;;;;6.90;4.97;;;;;;;8.41;100.00;97062.72;15277640;19;20356;-56
2022/11/16 15:05:23;;;;;;;5.30;4.80;;;;;;;8.42;100.00;97065.22;15272999;19;20022;-61
2022/11/16 15:10:50;;;;;;;4.88;4.47;;;;;;;8.43;100.00;97063.34;15275959;19;20015;-62
2022/11/16 15:16:25;;;;;;;4.43;4.03;;;;;;;8.45;100.00;97059.50;15279885;19;20358;-54
2022/11/16 15:21:54;;;;;;;6.78;4.25;;;;;;;8.47;100.00;97054.78;15273782;19;20333;-60
2022/11/16 15:27:31;;;;;;;4.28;3.88;;;;;;;8.50;100.00;97058.97;15271836;19;20019;-62
2022/11/16 15:32:58;;;;;;;4.78;4.20;;;;;;;8.50;100.00;97053.63;15280632;19;20373;-61
2022/11/16 15:38:26;;;;;;;4.22;3.83;;;;;;;8.51;100.00;97060.66;15278293;19;20094;-61
2022/11/16 15:43:54;;;;;;;4.40;3.72;;;;;;;8.47;100.00;97045.88;15278328;19;20094;-61
2022/11/16 15:49:39;;;;;;;4.72;4.18;;;;;;;8.45;100.00;97050.59;15274788;19;20007;-61
2022/11/16 15:55:06;;;;;;;7.17;6.47;;;;;;;8.31;100.00;97036.13;15276829;19;20052;-61
2022/11/16 16:00:33;;;;;;;4.53;3.40;;;;;;;8.20;100.00;97037.38;15264456;19;20348;-61
2022/11/16 16:06:01;;;;;;;4.95;4.43;;;;;;;8.01;100.00;97042.25;15274493;19;20018;-62
2022/11/16 16:11:36;;;;;;;4.88;4.43;;;;;;;7.89;100.00;97042.81;15274663;19;20730;-62
2022/11/16 16:17:01;;;;;;;9.63;8.73;;;;;;;7.85;100.00;97050.38;15274134;19;20014;-62
2022/11/16 16:22:36;;;;;;;15.68;14.07;;;;;;;7.82;100.00;97059.63;15275318;19;20010;-61
2022/11/16 16:28:01;;;;;;;6.20;5.40;;;;;;;7.83;100.00;97060.44;15269347;19;20006;-60
2022/11/16 16:33:28;;;;;;;11.70;10.38;;;;;;;7.82;100.00;97069.53;15276561;19;20086;-61
2022/11/16 16:38:56;;;;;;;6.70;6.00;;;;;;;7.78;100.00;97058.31;15274101;19;20038;-61
2022/11/16 16:44:23;;;;;;;5.53;4.93;;;;;;;7.71;100.00;97060.84;15266992;19;20844;-61
2022/11/16 16:49:48;;;;;;;6.55;5.95;;;;;;;7.72;100.00;97061.72;15260078;19;20010;-62
2022/11/16 16:55:17;;;;;;;5.55;4.63;;;;;;;7.72;100.00;97075.94;15267341;19;20010;-63
2022/11/16 17:00:41;;;;;;;8.23;4.88;;;;;;;7.64;100.00;97067.94;15271224;19;20018;-62
2022/11/16 17:06:08;;;;;;;9.02;6.10;;;;;;;7.53;100.00;97066.47;15273283;19;20471;-62
2022/11/16 17:11:35;;;;;;;10.00;5.75;;;;;;;7.56;100.00;97078.72;15280668;19;20024;-63
2022/11/16 17:17:00;;;;;;;7.75;6.00;;;;;;;7.48;100.00;97073.38;15286655;19;20022;-61
2022/11/16 17:22:32;;;;;;;9.45;6.00;;;;;;;7.48;100.00;97081.41;15279285;19;20729;-63
2022/11/16 17:27:59;;;;;;;15.52;6.60;;;;;;;7.45;100.00;97076.44;15284628;19;20038;-62
2022/11/16 17:33:25;;;;;;;16.50;6.82;;;;;;;7.44;100.00;97075.56;15282657;19;20022;-61
2022/11/16 17:38:49;;;;;;;148.82;8.27;;;;;;;7.44;100.00;97080.13;15284789;19;20598;-63
2022/11/16 17:44:18;;;;;;;205.63;9.52;;;;;;;7.47;100.00;97079.75;15287585;19;20434;-63
2022/11/16 17:49:44;;;;;;;72.28;7.70;;;;;;;7.45;100.00;97081.78;15281447;19;20465;-62
2022/11/16 17:55:09;;;;;;;219.10;9.40;;;;;;;7.42;100.00;97074.91;15277581;19;20017;-63
2022/11/16 18:00:37;;;;;;;269.95;11.10;;;;;;;7.42;100.00;97068.75;15281821;19;20023;-62
2022/11/16 18:06:12;;;;;;;298.73;10.90;;;;;;;7.39;100.00;97067.25;15280288;19;20066;-63
2022/11/16 18:11:38;;;;;;;32.25;8.05;;;;;;;7.38;100.00;97070.94;15278902;19;20077;-65
2022/11/16 18:17:05;;;;;;;149.30;13.98;;;;;;;7.33;100.00;97066.09;15280114;19;20503;-62
2022/11/16 18:22:29;;;;;;;68.18;9.43;;;;;;;7.29;100.00;97064.78;15276323;19;20094;-62
2022/11/16 18:27:59;;;;;;;131.35;11.25;;;;;;;7.23;100.00;97058.25;15275540;19;20018;-62
2022/11/16 18:33:26;;;;;;;105.90;10.98;;;;;;;7.20;100.00;97071.19;15281309;19;20078;-62
2022/11/16 18:38:51;;;;;;;23.58;10.38;;;;;;;7.17;100.00;97074.19;15257067;19;20014;-63
2022/11/16 18:44:15;;;;;;;181.00;11.48;;;;;;;7.18;100.00;97075.88;15279733;19;20020;-62
2022/11/16 18:49:43;;;;;;;204.25;12.95;;;;;;;7.18;100.00;97084.72;15278701;19;20325;-62
2022/11/16 18:55:08;;;;;;;719.78;25.35;;;;;;;7.18;100.00;97082.03;15279106;19;20015;-59
2022/11/16 19:00:33;;;;;;;622.88;22.42;;;;;;;7.09;100.00;97078.56;15272761;19;20018;-63
2022/11/16 19:06:08;;;;;;;496.45;18.40;;;;;;;7.11;100.00;97080.25;15278435;19;20024;-51
2022/11/16 19:11:33;;;;;;;644.85;23.08;;;;;;;7.08;100.00;97068.88;15276850;19;20147;-54
2022/11/16 19:16:58;;;;;;;380.08;18.83;;;;;;;7.08;100.00;97066.19;15277136;19;20102;-50
2022/11/16 19:22:25;;;;;;;144.40;13.90;;;;;;;7.09;100.00;97067.88;15276847;19;20011;-54
2022/11/16 19:27:50;;;;;;;125.60;12.93;;;;;;;7.13;100.00;97062.13;15279955;19;20089;-54
2022/11/16 19:33:16;;;;;;;37.55;20.55;;;;;;;7.15;100.00;97055.63;15263210;19;20015;-45
2022/11/16 19:38:44;;;;;;;24.50;21.88;;;;;;;7.17;100.00;97063.47;15271322;19;20089;-44
2022/11/16 19:44:09;;;;;;;15.15;12.60;;;;;;;7.16;100.00;97051.09;15275338;19;20102;-46
2022/11/16 19:49:35;;;;;;;10.93;9.82;;;;;;;7.11;100.00;97042.75;15274354;19;20018;-42
2022/11/16 19:55:02;;;;;;;9.57;8.57;;;;;;;7.10;100.00;97044.59;15273103;19;20012;-44
2022/11/16 20:00:28;;;;;;;10.40;8.85;;;;;;;7.13;100.00;97046.06;15274830;19;20015;-47
2022/11/16 20:05:53;;;;;;;8.18;7.38;;;;;;;7.17;100.00;97048.25;15263128;19;20019;-52
2022/11/16 20:11:25;;;;;;;9.10;8.20;;;;;;;7.16;100.00;97046.59;15278146;19;20022;-52
2022/11/16 20:16:52;;;;;;;10.00;9.00;;;;;;;7.16;100.00;97059.13;15271232;19;20014;-53
2022/11/16 20:22:16;;;;;;;16.77;8.80;;;;;;;7.14;100.00;97047.75;15274840;19;20017;-55
2022/11/16 20:27:43;;;;;;;9.55;8.57;;;;;;;7.11;100.00;97037.41;15274984;19;20018;-51
2022/11/16 20:33:08;;;;;;;7.70;6.82;;;;;;;7.13;100.00;97052.28;15274690;19;20010;-51
2022/11/16 20:38:34;;;;;;;10.00;8.93;;;;;;;7.11;100.00;97054.28;15270821;19;20475;-56
2022/11/16 20:44:07;;;;;;;7.35;6.65;;;;;;;7.06;100.00;97059.31;15275862;19;20018;-51
2022/11/16 20:49:35;;;;;;;8.37;7.10;;;;;;;6.99;100.00;97040.47;15292995;19;20018;-53
2022/11/16 20:54:59;;;;;;;8.88;7.65;;;;;;;7.00;100.00;97046.63;15288568;19;20010;-51
2022/11/16 21:00:26;;;;;;;26.83;8.73;;;;;;;6.91;100.00;97053.84;15290584;19;20090;-52
2022/11/16 21:05:53;;;;;;;30.67;8.27;;;;;;;6.87;100.00;97056.03;15282363;19;20019;-54
2022/11/16 21:11:20;;;;;;;37.08;7.22;;;;;;;6.81;100.00;97059.41;15288740;19;20534;-55
2022/11/16 21:16:48;;;;;;;99.35;8.10;;;;;;;6.81;100.00;97077.31;15282081;19;20769;-55
2022/11/16 21:22:13;;;;;;;82.85;7.93;;;;;;;6.78;100.00;97060.56;15284202;19;20078;-53
2022/11/16 21:27:38;;;;;;;31.63;7.57;;;;;;;6.75;100.00;97057.41;15284825;19;20392;-51
2022/11/16 21:33:06;;;;;;;74.05;8.65;;;;;;;6.73;100.00;97079.00;15286007;19;20032;-53
2022/11/16 21:38:33;;;;;;;90.30;8.70;;;;;;;6.72;100.00;97077.31;15278635;19;20082;-53
2022/11/16 21:43:58;;;;;;;82.05;8.70;;;;;;;6.70;100.00;97089.22;15280626;19;21245;-53
2022/11/16 21:49:25;;;;;;;35.15;8.10;;;;;;;6.70;100.00;97089.22;15284612;19;20097;-50
2022/11/16 21:54:54;;;;;;;15.88;8.02;;;;;;;6.63;100.00;97073.81;15278454;19;20077;-52
2022/11/16 22:00:21;;;;;;;10.43;7.90;;;;;;;6.60;100.00;97070.66;15283626;19;20018;-55
2022/11/16 22:11:28;;;;;;;15.23;10.90;;;;;;;6.52;100.00;97089.41;15274573;19;20017;-52
2022/11/16 22:16:53;;;;;;;13.43;10.35;;;;;;;6.52;100.00;97082.19;15277784;19;20025;-55
2022/11/16 22:22:20;;;;;;;14.13;10.57;;;;;;;6.50;100.00;97070.81;15282854;19;20018;-56
2022/11/16 22:27:48;;;;;;;11.57;9.65;;;;;;;6.47;100.00;97063.13;15282250;19;20548;-56
2022/11/16 22:33:33;;;;;;;13.98;10.88;;;;;;;6.45;100.00;97055.28;15283903;19;20022;-56
2022/11/16 22:39:02;;;;;;;16.85;11.70;;;;;;;6.46;100.00;97046.25;15285662;19;20350;-54
2022/11/16 22:44:27;;;;;;;16.20;11.40;;;;;;;6.41;100.00;97029.03;15275610;19;20014;-54
2022/11/16 22:49:52;;;;;;;26.35;15.82;;;;;;;6.39;100.00;97028.38;15282469;19;20359;-55
2022/11/16 22:55:20;;;;;;;22.42;14.68;;;;;;;6.35;100.00;97027.06;15280522;19;20014;-54
2022/11/16 23:00:45;;;;;;;21.05;13.70;;;;;;;6.33;100.00;97029.88;15283217;19;20546;-52
2022/11/16 23:06:09;;;;;;;23.20;15.23;;;;;;;6.31;100.00;97029.22;15277818;19;20010;-53
2022/11/16 23:17:14;;;;;;;36.50;15.90;;;;;;;6.30;100.00;97017.69;15275778;19;20031;-50
2022/11/16 23:28:22;;;;;;;40.30;13.80;;;;;;;6.26;100.00;97004.81;15281762;19;20019;-54
2022/11/16 23:33:46;;;;;;;55.93;13.30;;;;;;;6.22;100.00;97003.50;15278792;19;20022;-55
2022/11/16 23:39:11;;;;;;;118.75;13.52;;;;;;;6.19;100.00;96995.78;15282112;19;20017;-54
2022/11/16 23:44:38;;;;;;;133.23;13.02;;;;;;;6.16;100.00;96981.78;15277531;19;20014;-51
2022/11/16 23:50:03;;;;;;;180.18;11.60;;;;;;;6.10;100.00;96969.06;15277462;19;20022;-55
2022/11/16 23:55:29;;;;;;;148.98;11.20;;;;;;;6.07;100.00;96961.38;15274552;19;20025;-50
